sensor_id;sensor_type;location;lat;lon;timestamp;P1;durP1;ratioP1;P2;durP2;ratioP2
14797;SDS011;7490;63.708;20.368;2023-08-20T00:00:26;5.80;;;4.53;;
14797;SDS011;7490;63.708;20.368;2023-08-20T00:03:00;7.77;;;4.73;;
14797;SDS011;7490;63.708;20.368;2023-08-20T00:05:30;6.20;;;4.37;;
14797;SDS011;7490;63.708;20.368;2023-08-20T00:07:56;6.60;;;4.83;;
14797;SDS011;7490;63.708;20.368;2023-08-20T00:10:22;4.70;;;3.50;;
14797;SDS011;7490;63.708;20.368;2023-08-20T00:12:48;5.00;;;3.53;;
14797;SDS011;7490;63.708;20.368;2023-08-20T00:15:13;5.80;;;4.30;;
14797;SDS011;7490;63.708;20.368;2023-08-20T00:17:40;7.23;;;4.33;;
14797;SDS011;7490;63.708;20.368;2023-08-20T00:20:07;7.37;;;4.80;;
14797;SDS011;7490;63.708;20.368;2023-08-20T00:22:37;6.33;;;4.87;;
14797;SDS011;7490;63.708;20.368;2023-08-20T00:25:03;7.43;;;4.40;;
14797;SDS011;7490;63.708;20.368;2023-08-20T00:27:30;8.03;;;5.00;;
14797;SDS011;7490;63.708;20.368;2023-08-20T00:29:56;7.47;;;4.60;;
14797;SDS011;7490;63.708;20.368;2023-08-20T00:32:21;6.60;;;4.80;;
14797;SDS011;7490;63.708;20.368;2023-08-20T00:34:47;7.50;;;4.97;;
14797;SDS011;7490;63.708;20.368;2023-08-20T00:37:13;12.23;;;5.00;;
14797;SDS011;7490;63.708;20.368;2023-08-20T00:39:38;6.60;;;4.80;;
14797;SDS011;7490;63.708;20.368;2023-08-20T00:42:04;7.33;;;5.00;;
14797;SDS011;7490;63.708;20.368;2023-08-20T00:44:30;6.07;;;4.30;;
14797;SDS011;7490;63.708;20.368;2023-08-20T00:46:56;11.23;;;5.27;;
14797;SDS011;7490;63.708;20.368;2023-08-20T00:49:22;10.03;;;4.50;;
14797;SDS011;7490;63.708;20.368;2023-08-20T00:51:48;9.07;;;4.70;;
14797;SDS011;7490;63.708;20.368;2023-08-20T00:54:15;6.17;;;4.20;;
14797;SDS011;7490;63.708;20.368;2023-08-20T00:56:41;6.63;;;4.20;;
14797;SDS011;7490;63.708;20.368;2023-08-20T00:59:07;5.83;;;4.47;;
14797;SDS011;7490;63.708;20.368;2023-08-20T01:01:33;6.57;;;4.20;;
14797;SDS011;7490;63.708;20.368;2023-08-20T01:03:58;9.07;;;4.80;;
14797;SDS011;7490;63.708;20.368;2023-08-20T01:06:39;6.63;;;4.63;;
14797;SDS011;7490;63.708;20.368;2023-08-20T01:09:21;5.40;;;3.80;;
14797;SDS011;7490;63.708;20.368;2023-08-20T01:11:53;5.97;;;4.30;;
14797;SDS011;7490;63.708;20.368;2023-08-20T01:14:22;5.53;;;4.20;;
14797;SDS011;7490;63.708;20.368;2023-08-20T01:16:48;7.93;;;4.80;;
14797;SDS011;7490;63.708;20.368;2023-08-20T01:19:16;7.77;;;4.60;;
14797;SDS011;7490;63.708;20.368;2023-08-20T01:22:00;7.87;;;4.27;;
14797;SDS011;7490;63.708;20.368;2023-08-20T01:30:10;5.80;;;4.20;;
14797;SDS011;7490;63.708;20.368;2023-08-20T01:32:38;6.20;;;4.47;;
14797;SDS011;7490;63.708;20.368;2023-08-20T01:35:16;6.47;;;4.67;;
14797;SDS011;7490;63.708;20.368;2023-08-20T01:37:42;10.10;;;4.77;;
14797;SDS011;7490;63.708;20.368;2023-08-20T01:40:08;5.37;;;4.17;;
14797;SDS011;7490;63.708;20.368;2023-08-20T01:42:36;6.13;;;3.83;;
14797;SDS011;7490;63.708;20.368;2023-08-20T01:45:03;5.70;;;4.03;;
14797;SDS011;7490;63.708;20.368;2023-08-20T01:47:29;5.70;;;4.40;;
14797;SDS011;7490;63.708;20.368;2023-08-20T01:49:55;7.57;;;4.40;;
14797;SDS011;7490;63.708;20.368;2023-08-20T01:52:21;6.73;;;4.80;;
14797;SDS011;7490;63.708;20.368;2023-08-20T01:54:47;6.07;;;4.17;;
14797;SDS011;7490;63.708;20.368;2023-08-20T01:57:13;6.63;;;4.47;;
14797;SDS011;7490;63.708;20.368;2023-08-20T01:59:39;6.43;;;3.93;;
14797;SDS011;7490;63.708;20.368;2023-08-20T02:02:05;8.57;;;4.40;;
14797;SDS011;7490;63.708;20.368;2023-08-20T02:04:31;5.50;;;3.63;;
14797;SDS011;7490;63.708;20.368;2023-08-20T02:06:57;7.10;;;4.03;;
14797;SDS011;7490;63.708;20.368;2023-08-20T02:09:23;5.20;;;3.63;;
14797;SDS011;7490;63.708;20.368;2023-08-20T02:11:49;6.07;;;3.67;;
14797;SDS011;7490;63.708;20.368;2023-08-20T02:14:18;6.47;;;3.70;;
14797;SDS011;7490;63.708;20.368;2023-08-20T02:16:43;6.27;;;3.60;;
14797;SDS011;7490;63.708;20.368;2023-08-20T02:19:11;5.63;;;3.57;;
14797;SDS011;7490;63.708;20.368;2023-08-20T02:21:36;3.97;;;3.27;;
14797;SDS011;7490;63.708;20.368;2023-08-20T02:24:02;3.90;;;3.30;;
14797;SDS011;7490;63.708;20.368;2023-08-20T02:26:28;5.70;;;3.53;;
14797;SDS011;7490;63.708;20.368;2023-08-20T02:28:54;5.77;;;3.50;;
14797;SDS011;7490;63.708;20.368;2023-08-20T02:31:20;4.90;;;3.90;;
14797;SDS011;7490;63.708;20.368;2023-08-20T02:33:45;7.67;;;3.90;;
14797;SDS011;7490;63.708;20.368;2023-08-20T02:36:11;5.67;;;3.60;;
14797;SDS011;7490;63.708;20.368;2023-08-20T02:38:37;6.97;;;4.07;;
14797;SDS011;7490;63.708;20.368;2023-08-20T02:41:02;4.50;;;3.60;;
14797;SDS011;7490;63.708;20.368;2023-08-20T02:43:28;5.97;;;3.67;;
14797;SDS011;7490;63.708;20.368;2023-08-20T02:45:54;5.57;;;3.13;;
14797;SDS011;7490;63.708;20.368;2023-08-20T02:48:20;5.60;;;3.60;;
14797;SDS011;7490;63.708;20.368;2023-08-20T02:50:46;3.87;;;3.13;;
14797;SDS011;7490;63.708;20.368;2023-08-20T02:53:11;5.73;;;3.47;;
14797;SDS011;7490;63.708;20.368;2023-08-20T02:55:37;6.27;;;3.70;;
14797;SDS011;7490;63.708;20.368;2023-08-20T02:58:03;5.27;;;3.77;;
14797;SDS011;7490;63.708;20.368;2023-08-20T03:00:30;5.67;;;3.67;;
14797;SDS011;7490;63.708;20.368;2023-08-20T03:02:56;5.77;;;3.90;;
14797;SDS011;7490;63.708;20.368;2023-08-20T03:05:23;5.47;;;3.40;;
14797;SDS011;7490;63.708;20.368;2023-08-20T03:07:48;5.10;;;3.17;;
14797;SDS011;7490;63.708;20.368;2023-08-20T03:10:14;4.17;;;3.23;;
14797;SDS011;7490;63.708;20.368;2023-08-20T03:12:40;4.60;;;3.63;;
14797;SDS011;7490;63.708;20.368;2023-08-20T03:15:06;5.03;;;4.20;;
14797;SDS011;7490;63.708;20.368;2023-08-20T03:17:32;5.60;;;3.60;;
14797;SDS011;7490;63.708;20.368;2023-08-20T03:19:58;7.10;;;3.93;;
14797;SDS011;7490;63.708;20.368;2023-08-20T03:22:25;5.43;;;3.90;;
14797;SDS011;7490;63.708;20.368;2023-08-20T03:24:52;5.83;;;3.83;;
14797;SDS011;7490;63.708;20.368;2023-08-20T03:27:18;5.53;;;3.17;;
14797;SDS011;7490;63.708;20.368;2023-08-20T03:29:45;4.60;;;2.87;;
14797;SDS011;7490;63.708;20.368;2023-08-20T03:32:11;3.70;;;3.03;;
14797;SDS011;7490;63.708;20.368;2023-08-20T03:34:37;3.43;;;2.80;;
14797;SDS011;7490;63.708;20.368;2023-08-20T03:37:03;3.30;;;2.60;;
14797;SDS011;7490;63.708;20.368;2023-08-20T03:39:29;2.60;;;2.40;;
14797;SDS011;7490;63.708;20.368;2023-08-20T03:41:56;3.20;;;2.60;;
14797;SDS011;7490;63.708;20.368;2023-08-20T03:44:22;2.70;;;2.40;;
14797;SDS011;7490;63.708;20.368;2023-08-20T03:46:48;2.30;;;2.10;;
14797;SDS011;7490;63.708;20.368;2023-08-20T03:49:14;2.43;;;2.20;;
14797;SDS011;7490;63.708;20.368;2023-08-20T03:51:39;8.47;;;2.50;;
14797;SDS011;7490;63.708;20.368;2023-08-20T03:54:06;2.10;;;1.90;;
14797;SDS011;7490;63.708;20.368;2023-08-20T03:56:31;1.80;;;1.70;;
14797;SDS011;7490;63.708;20.368;2023-08-20T03:58:57;2.67;;;1.73;;
14797;SDS011;7490;63.708;20.368;2023-08-20T04:01:22;2.80;;;1.90;;
14797;SDS011;7490;63.708;20.368;2023-08-20T04:03:48;1.90;;;1.67;;
14797;SDS011;7490;63.708;20.368;2023-08-20T04:06:14;1.67;;;1.53;;
14797;SDS011;7490;63.708;20.368;2023-08-20T04:08:40;1.77;;;1.67;;
14797;SDS011;7490;63.708;20.368;2023-08-20T04:11:06;2.00;;;1.70;;
14797;SDS011;7490;63.708;20.368;2023-08-20T04:13:32;1.70;;;1.60;;
14797;SDS011;7490;63.708;20.368;2023-08-20T04:15:58;1.90;;;1.70;;
14797;SDS011;7490;63.708;20.368;2023-08-20T04:18:23;2.90;;;1.63;;
14797;SDS011;7490;63.708;20.368;2023-08-20T04:20:52;2.00;;;1.57;;
14797;SDS011;7490;63.708;20.368;2023-08-20T04:23:19;3.07;;;1.53;;
14797;SDS011;7490;63.708;20.368;2023-08-20T04:25:45;1.63;;;1.53;;
14797;SDS011;7490;63.708;20.368;2023-08-20T04:28:12;1.73;;;1.63;;
14797;SDS011;7490;63.708;20.368;2023-08-20T04:30:37;3.00;;;1.50;;
14797;SDS011;7490;63.708;20.368;2023-08-20T04:33:04;1.90;;;1.30;;
14797;SDS011;7490;63.708;20.368;2023-08-20T04:35:29;1.60;;;1.50;;
14797;SDS011;7490;63.708;20.368;2023-08-20T04:37:55;2.47;;;1.67;;
14797;SDS011;7490;63.708;20.368;2023-08-20T04:40:21;1.80;;;1.50;;
14797;SDS011;7490;63.708;20.368;2023-08-20T04:42:46;2.00;;;1.57;;
14797;SDS011;7490;63.708;20.368;2023-08-20T04:45:12;1.60;;;1.50;;
14797;SDS011;7490;63.708;20.368;2023-08-20T04:47:38;1.60;;;1.50;;
14797;SDS011;7490;63.708;20.368;2023-08-20T04:50:04;1.30;;;1.30;;
14797;SDS011;7490;63.708;20.368;2023-08-20T04:52:33;1.60;;;1.50;;
14797;SDS011;7490;63.708;20.368;2023-08-20T04:54:59;1.33;;;1.23;;
14797;SDS011;7490;63.708;20.368;2023-08-20T04:57:26;1.70;;;1.57;;
14797;SDS011;7490;63.708;20.368;2023-08-20T04:59:51;1.43;;;1.33;;
14797;SDS011;7490;63.708;20.368;2023-08-20T05:02:17;1.53;;;1.27;;
14797;SDS011;7490;63.708;20.368;2023-08-20T05:04:43;1.87;;;1.47;;
14797;SDS011;7490;63.708;20.368;2023-08-20T05:07:08;1.53;;;1.43;;
14797;SDS011;7490;63.708;20.368;2023-08-20T05:09:34;1.67;;;1.43;;
14797;SDS011;7490;63.708;20.368;2023-08-20T05:12:00;2.40;;;1.63;;
14797;SDS011;7490;63.708;20.368;2023-08-20T05:14:26;2.17;;;1.37;;
14797;SDS011;7490;63.708;20.368;2023-08-20T05:16:51;1.47;;;1.37;;
14797;SDS011;7490;63.708;20.368;2023-08-20T05:19:17;1.37;;;1.33;;
14797;SDS011;7490;63.708;20.368;2023-08-20T05:21:43;1.40;;;1.30;;
14797;SDS011;7490;63.708;20.368;2023-08-20T05:24:08;1.83;;;1.40;;
14797;SDS011;7490;63.708;20.368;2023-08-20T05:26:34;1.57;;;1.40;;
14797;SDS011;7490;63.708;20.368;2023-08-20T05:29:00;1.77;;;1.40;;
14797;SDS011;7490;63.708;20.368;2023-08-20T05:31:25;1.50;;;1.40;;
14797;SDS011;7490;63.708;20.368;2023-08-20T05:33:51;1.50;;;1.40;;
14797;SDS011;7490;63.708;20.368;2023-08-20T05:36:17;1.33;;;1.23;;
14797;SDS011;7490;63.708;20.368;2023-08-20T05:38:42;1.60;;;1.50;;
14797;SDS011;7490;63.708;20.368;2023-08-20T05:41:08;1.40;;;1.27;;
14797;SDS011;7490;63.708;20.368;2023-08-20T05:43:34;1.30;;;1.20;;
14797;SDS011;7490;63.708;20.368;2023-08-20T05:46:01;3.10;;;1.50;;
14797;SDS011;7490;63.708;20.368;2023-08-20T05:48:27;1.23;;;1.20;;
14797;SDS011;7490;63.708;20.368;2023-08-20T05:50:53;1.40;;;1.30;;
14797;SDS011;7490;63.708;20.368;2023-08-20T05:53:19;1.40;;;1.30;;
14797;SDS011;7490;63.708;20.368;2023-08-20T05:55:45;1.40;;;1.30;;
14797;SDS011;7490;63.708;20.368;2023-08-20T05:58:11;2.80;;;1.30;;
14797;SDS011;7490;63.708;20.368;2023-08-20T06:00:36;2.47;;;1.40;;
14797;SDS011;7490;63.708;20.368;2023-08-20T06:03:02;1.30;;;1.20;;
14797;SDS011;7490;63.708;20.368;2023-08-20T06:05:28;1.30;;;1.20;;
14797;SDS011;7490;63.708;20.368;2023-08-20T06:07:53;1.20;;;1.13;;
14797;SDS011;7490;63.708;20.368;2023-08-20T06:10:19;1.88;;;1.30;;
14797;SDS011;7490;63.708;20.368;2023-08-20T06:12:45;1.10;;;1.10;;
14797;SDS011;7490;63.708;20.368;2023-08-20T06:15:11;3.08;;;1.40;;
14797;SDS011;7490;63.708;20.368;2023-08-20T06:17:36;1.30;;;1.20;;
14797;SDS011;7490;63.708;20.368;2023-08-20T06:20:03;1.30;;;1.25;;
14797;SDS011;7490;63.708;20.368;2023-08-20T06:22:32;1.17;;;1.17;;
14797;SDS011;7490;63.708;20.368;2023-08-20T06:24:57;1.33;;;1.30;;
14797;SDS011;7490;63.708;20.368;2023-08-20T06:27:23;1.17;;;1.17;;
14797;SDS011;7490;63.708;20.368;2023-08-20T06:29:49;1.33;;;1.20;;
14797;SDS011;7490;63.708;20.368;2023-08-20T06:32:14;1.23;;;1.23;;
14797;SDS011;7490;63.708;20.368;2023-08-20T06:34:40;1.15;;;1.15;;
14797;SDS011;7490;63.708;20.368;2023-08-20T06:37:06;1.90;;;1.40;;
14797;SDS011;7490;63.708;20.368;2023-08-20T06:39:31;1.15;;;1.15;;
14797;SDS011;7490;63.708;20.368;2023-08-20T06:41:57;1.27;;;1.20;;
14797;SDS011;7490;63.708;20.368;2023-08-20T06:44:23;1.25;;;1.15;;
14797;SDS011;7490;63.708;20.368;2023-08-20T06:46:48;1.20;;;1.10;;
14797;SDS011;7490;63.708;20.368;2023-08-20T06:49:14;1.77;;;1.20;;
14797;SDS011;7490;63.708;20.368;2023-08-20T06:51:40;1.13;;;1.13;;
14797;SDS011;7490;63.708;20.368;2023-08-20T06:54:05;1.50;;;1.40;;
14797;SDS011;7490;63.708;20.368;2023-08-20T06:56:32;1.55;;;1.45;;
14797;SDS011;7490;63.708;20.368;2023-08-20T06:58:57;1.58;;;1.30;;
14797;SDS011;7490;63.708;20.368;2023-08-20T07:01:23;1.50;;;1.40;;
14797;SDS011;7490;63.708;20.368;2023-08-20T07:03:49;0.98;;;0.98;;
14797;SDS011;7490;63.708;20.368;2023-08-20T07:06:14;1.50;;;1.40;;
14797;SDS011;7490;63.708;20.368;2023-08-20T07:08:43;1.40;;;1.40;;
14797;SDS011;7490;63.708;20.368;2023-08-20T07:11:08;1.38;;;1.25;;
14797;SDS011;7490;63.708;20.368;2023-08-20T07:13:34;1.60;;;1.10;;
14797;SDS011;7490;63.708;20.368;2023-08-20T07:16:00;1.33;;;1.33;;
14797;SDS011;7490;63.708;20.368;2023-08-20T07:18:26;1.45;;;1.42;;
14797;SDS011;7490;63.708;20.368;2023-08-20T07:20:52;1.40;;;1.40;;
14797;SDS011;7490;63.708;20.368;2023-08-20T07:23:18;1.50;;;1.40;;
14797;SDS011;7490;63.708;20.368;2023-08-20T07:25:43;1.70;;;1.60;;
14797;SDS011;7490;63.708;20.368;2023-08-20T07:28:13;1.40;;;1.40;;
14797;SDS011;7490;63.708;20.368;2023-08-20T07:30:39;1.42;;;1.33;;
14797;SDS011;7490;63.708;20.368;2023-08-20T07:33:06;1.42;;;1.33;;
14797;SDS011;7490;63.708;20.368;2023-08-20T07:35:31;1.52;;;1.42;;
14797;SDS011;7490;63.708;20.368;2023-08-20T07:37:57;1.98;;;1.50;;
14797;SDS011;7490;63.708;20.368;2023-08-20T07:40:23;1.50;;;1.40;;
14797;SDS011;7490;63.708;20.368;2023-08-20T07:42:49;1.60;;;1.50;;
14797;SDS011;7490;63.708;20.368;2023-08-20T07:45:15;1.50;;;1.33;;
14797;SDS011;7490;63.708;20.368;2023-08-20T07:47:41;1.50;;;1.40;;
14797;SDS011;7490;63.708;20.368;2023-08-20T07:50:07;1.45;;;1.35;;
14797;SDS011;7490;63.708;20.368;2023-08-20T07:52:33;1.52;;;1.40;;
14797;SDS011;7490;63.708;20.368;2023-08-20T07:54:59;1.73;;;1.63;;
14797;SDS011;7490;63.708;20.368;2023-08-20T07:57:25;1.50;;;1.40;;
14797;SDS011;7490;63.708;20.368;2023-08-20T07:59:51;1.92;;;1.50;;
14797;SDS011;7490;63.708;20.368;2023-08-20T08:02:17;1.38;;;1.38;;
14797;SDS011;7490;63.708;20.368;2023-08-20T08:04:43;1.42;;;1.42;;
14797;SDS011;7490;63.708;20.368;2023-08-20T08:07:09;1.60;;;1.50;;
14797;SDS011;7490;63.708;20.368;2023-08-20T08:09:36;1.50;;;1.40;;
14797;SDS011;7490;63.708;20.368;2023-08-20T08:12:02;1.30;;;1.30;;
14797;SDS011;7490;63.708;20.368;2023-08-20T08:14:28;1.60;;;1.50;;
14797;SDS011;7490;63.708;20.368;2023-08-20T08:16:53;1.60;;;1.50;;
14797;SDS011;7490;63.708;20.368;2023-08-20T08:19:19;1.50;;;1.42;;
14797;SDS011;7490;63.708;20.368;2023-08-20T08:21:45;1.77;;;1.67;;
14797;SDS011;7490;63.708;20.368;2023-08-20T08:24:12;1.73;;;1.63;;
14797;SDS011;7490;63.708;20.368;2023-08-20T08:26:38;1.75;;;1.65;;
14797;SDS011;7490;63.708;20.368;2023-08-20T08:29:05;1.60;;;1.50;;
14797;SDS011;7490;63.708;20.368;2023-08-20T08:31:32;1.88;;;1.63;;
14797;SDS011;7490;63.708;20.368;2023-08-20T08:33:57;1.67;;;1.58;;
14797;SDS011;7490;63.708;20.368;2023-08-20T08:36:23;1.70;;;1.60;;
14797;SDS011;7490;63.708;20.368;2023-08-20T08:38:52;3.60;;;1.90;;
14797;SDS011;7490;63.708;20.368;2023-08-20T08:41:18;2.97;;;1.75;;
14797;SDS011;7490;63.708;20.368;2023-08-20T08:43:47;1.80;;;1.70;;
14797;SDS011;7490;63.708;20.368;2023-08-20T08:46:14;1.67;;;1.48;;
14797;SDS011;7490;63.708;20.368;2023-08-20T08:48:41;1.98;;;1.63;;
14797;SDS011;7490;63.708;20.368;2023-08-20T08:51:08;1.90;;;1.80;;
14797;SDS011;7490;63.708;20.368;2023-08-20T08:53:33;1.70;;;1.50;;
14797;SDS011;7490;63.708;20.368;2023-08-20T08:56:01;1.73;;;1.65;;
14797;SDS011;7490;63.708;20.368;2023-08-20T08:58:27;1.55;;;1.48;;
14797;SDS011;7490;63.708;20.368;2023-08-20T09:00:53;1.67;;;1.58;;
14797;SDS011;7490;63.708;20.368;2023-08-20T09:03:19;1.73;;;1.63;;
14797;SDS011;7490;63.708;20.368;2023-08-20T09:05:46;1.75;;;1.65;;
14797;SDS011;7490;63.708;20.368;2023-08-20T09:08:26;2.63;;;2.00;;
14797;SDS011;7490;63.708;20.368;2023-08-20T09:10:53;2.38;;;2.05;;
14797;SDS011;7490;63.708;20.368;2023-08-20T09:13:23;2.47;;;2.00;;
14797;SDS011;7490;63.708;20.368;2023-08-20T09:15:51;2.20;;;2.10;;
14797;SDS011;7490;63.708;20.368;2023-08-20T09:18:18;2.17;;;2.08;;
14797;SDS011;7490;63.708;20.368;2023-08-20T09:20:43;2.05;;;1.85;;
14797;SDS011;7490;63.708;20.368;2023-08-20T09:23:10;2.00;;;1.90;;
14797;SDS011;7490;63.708;20.368;2023-08-20T09:25:38;2.88;;;2.10;;
14797;SDS011;7490;63.708;20.368;2023-08-20T09:28:03;2.13;;;2.00;;
14797;SDS011;7490;63.708;20.368;2023-08-20T09:30:29;2.15;;;2.05;;
14797;SDS011;7490;63.708;20.368;2023-08-20T09:33:11;2.15;;;2.00;;
14797;SDS011;7490;63.708;20.368;2023-08-20T09:35:42;2.05;;;1.85;;
14797;SDS011;7490;63.708;20.368;2023-08-20T09:38:14;1.70;;;1.60;;
14797;SDS011;7490;63.708;20.368;2023-08-20T09:40:39;1.70;;;1.60;;
14797;SDS011;7490;63.708;20.368;2023-08-20T09:43:05;2.30;;;1.83;;
14797;SDS011;7490;63.708;20.368;2023-08-20T09:45:34;1.77;;;1.67;;
14797;SDS011;7490;63.708;20.368;2023-08-20T09:48:01;1.40;;;1.40;;
14797;SDS011;7490;63.708;20.368;2023-08-20T09:50:30;1.88;;;1.77;;
14797;SDS011;7490;63.708;20.368;2023-08-20T09:53:22;1.80;;;1.70;;
14797;SDS011;7490;63.708;20.368;2023-08-20T09:56:09;1.95;;;1.85;;
14797;SDS011;7490;63.708;20.368;2023-08-20T09:58:51;1.90;;;1.80;;
14797;SDS011;7490;63.708;20.368;2023-08-20T10:01:18;1.50;;;1.40;;
14797;SDS011;7490;63.708;20.368;2023-08-20T10:03:44;1.55;;;1.45;;
14797;SDS011;7490;63.708;20.368;2023-08-20T10:06:10;1.52;;;1.42;;
14797;SDS011;7490;63.708;20.368;2023-08-20T10:08:36;1.80;;;1.70;;
14797;SDS011;7490;63.708;20.368;2023-08-20T10:11:03;2.40;;;1.60;;
14797;SDS011;7490;63.708;20.368;2023-08-20T10:13:29;1.63;;;1.52;;
14797;SDS011;7490;63.708;20.368;2023-08-20T10:15:55;1.70;;;1.60;;
14797;SDS011;7490;63.708;20.368;2023-08-20T10:18:21;2.25;;;1.90;;
14797;SDS011;7490;63.708;20.368;2023-08-20T10:20:51;1.50;;;1.40;;
14797;SDS011;7490;63.708;20.368;2023-08-20T10:23:19;1.30;;;1.30;;
14797;SDS011;7490;63.708;20.368;2023-08-20T10:25:49;2.15;;;1.65;;
14797;SDS011;7490;63.708;20.368;2023-08-20T10:28:21;2.00;;;1.60;;
14797;SDS011;7490;63.708;20.368;2023-08-20T10:38:48;2.60;;;1.60;;
14797;SDS011;7490;63.708;20.368;2023-08-20T10:41:15;1.50;;;1.50;;
14797;SDS011;7490;63.708;20.368;2023-08-20T10:43:48;1.70;;;1.60;;
14797;SDS011;7490;63.708;20.368;2023-08-20T10:48:46;2.47;;;1.67;;
14797;SDS011;7490;63.708;20.368;2023-08-20T10:59:21;3.53;;;1.50;;
14797;SDS011;7490;63.708;20.368;2023-08-20T11:01:55;1.70;;;1.60;;
14797;SDS011;7490;63.708;20.368;2023-08-20T11:04:23;1.83;;;1.73;;
14797;SDS011;7490;63.708;20.368;2023-08-20T11:06:57;2.20;;;1.77;;
14797;SDS011;7490;63.708;20.368;2023-08-20T11:09:24;2.97;;;1.70;;
14797;SDS011;7490;63.708;20.368;2023-08-20T11:11:52;2.20;;;2.00;;
14797;SDS011;7490;63.708;20.368;2023-08-20T11:14:19;2.03;;;1.93;;
14797;SDS011;7490;63.708;20.368;2023-08-20T11:16:46;1.90;;;1.80;;
14797;SDS011;7490;63.708;20.368;2023-08-20T11:19:13;2.13;;;2.00;;
14797;SDS011;7490;63.708;20.368;2023-08-20T11:21:40;1.70;;;1.60;;
14797;SDS011;7490;63.708;20.368;2023-08-20T11:24:07;2.63;;;1.87;;
14797;SDS011;7490;63.708;20.368;2023-08-20T11:26:34;2.10;;;2.00;;
14797;SDS011;7490;63.708;20.368;2023-08-20T11:29:00;2.13;;;2.03;;
14797;SDS011;7490;63.708;20.368;2023-08-20T11:31:30;2.37;;;2.17;;
14797;SDS011;7490;63.708;20.368;2023-08-20T11:33:56;2.03;;;1.90;;
14797;SDS011;7490;63.708;20.368;2023-08-20T11:36:22;1.80;;;1.70;;
14797;SDS011;7490;63.708;20.368;2023-08-20T11:38:49;2.20;;;1.97;;
14797;SDS011;7490;63.708;20.368;2023-08-20T11:41:17;2.00;;;1.80;;
14797;SDS011;7490;63.708;20.368;2023-08-20T11:43:43;2.63;;;2.10;;
14797;SDS011;7490;63.708;20.368;2023-08-20T11:46:12;2.20;;;2.10;;
14797;SDS011;7490;63.708;20.368;2023-08-20T11:48:57;2.40;;;1.73;;
14797;SDS011;7490;63.708;20.368;2023-08-20T11:51:36;2.40;;;2.20;;
14797;SDS011;7490;63.708;20.368;2023-08-20T11:54:21;2.00;;;1.90;;
14797;SDS011;7490;63.708;20.368;2023-08-20T11:56:48;2.57;;;2.00;;
14797;SDS011;7490;63.708;20.368;2023-08-20T11:59:15;2.10;;;1.90;;
14797;SDS011;7490;63.708;20.368;2023-08-20T12:01:42;2.30;;;2.10;;
14797;SDS011;7490;63.708;20.368;2023-08-20T12:04:08;2.50;;;2.30;;
14797;SDS011;7490;63.708;20.368;2023-08-20T12:06:36;2.13;;;2.00;;
14797;SDS011;7490;63.708;20.368;2023-08-20T12:09:07;2.53;;;2.20;;
14797;SDS011;7490;63.708;20.368;2023-08-20T12:11:49;3.47;;;2.20;;
14797;SDS011;7490;63.708;20.368;2023-08-20T12:14:17;2.10;;;2.00;;
14797;SDS011;7490;63.708;20.368;2023-08-20T12:16:43;2.90;;;2.03;;
14797;SDS011;7490;63.708;20.368;2023-08-20T12:19:08;2.00;;;1.90;;
14797;SDS011;7490;63.708;20.368;2023-08-20T12:21:34;2.27;;;2.13;;
14797;SDS011;7490;63.708;20.368;2023-08-20T12:24:00;2.33;;;2.20;;
14797;SDS011;7490;63.708;20.368;2023-08-20T12:26:25;2.33;;;2.13;;
14797;SDS011;7490;63.708;20.368;2023-08-20T12:28:51;3.50;;;2.10;;
14797;SDS011;7490;63.708;20.368;2023-08-20T12:31:17;2.17;;;2.00;;
14797;SDS011;7490;63.708;20.368;2023-08-20T12:33:42;2.30;;;2.10;;
14797;SDS011;7490;63.708;20.368;2023-08-20T12:36:08;2.30;;;2.20;;
14797;SDS011;7490;63.708;20.368;2023-08-20T12:38:34;2.27;;;1.90;;
14797;SDS011;7490;63.708;20.368;2023-08-20T12:41:00;2.80;;;2.23;;
14797;SDS011;7490;63.708;20.368;2023-08-20T12:43:26;3.47;;;2.00;;
14797;SDS011;7490;63.708;20.368;2023-08-20T12:45:52;2.23;;;2.07;;
14797;SDS011;7490;63.708;20.368;2023-08-20T12:48:18;2.53;;;2.00;;
14797;SDS011;7490;63.708;20.368;2023-08-20T12:50:43;2.60;;;2.20;;
14797;SDS011;7490;63.708;20.368;2023-08-20T12:53:09;2.77;;;2.23;;
14797;SDS011;7490;63.708;20.368;2023-08-20T12:55:35;2.60;;;2.40;;
14797;SDS011;7490;63.708;20.368;2023-08-20T12:58:00;2.57;;;2.17;;
14797;SDS011;7490;63.708;20.368;2023-08-20T13:00:26;2.80;;;2.60;;
14797;SDS011;7490;63.708;20.368;2023-08-20T13:02:52;2.67;;;2.47;;
14797;SDS011;7490;63.708;20.368;2023-08-20T13:05:19;2.53;;;2.33;;
14797;SDS011;7490;63.708;20.368;2023-08-20T13:07:46;3.00;;;2.70;;
14797;SDS011;7490;63.708;20.368;2023-08-20T13:10:12;2.43;;;2.23;;
14797;SDS011;7490;63.708;20.368;2023-08-20T13:12:40;3.57;;;2.60;;
14797;SDS011;7490;63.708;20.368;2023-08-20T13:15:07;3.63;;;2.40;;
14797;SDS011;7490;63.708;20.368;2023-08-20T13:17:35;2.57;;;2.37;;
14797;SDS011;7490;63.708;20.368;2023-08-20T13:20:02;3.03;;;2.80;;
14797;SDS011;7490;63.708;20.368;2023-08-20T13:22:28;2.70;;;2.50;;
14797;SDS011;7490;63.708;20.368;2023-08-20T13:24:54;2.90;;;2.70;;
14797;SDS011;7490;63.708;20.368;2023-08-20T13:27:19;2.80;;;2.60;;
14797;SDS011;7490;63.708;20.368;2023-08-20T13:29:45;3.37;;;2.93;;
14797;SDS011;7490;63.708;20.368;2023-08-20T13:32:11;3.80;;;2.70;;
14797;SDS011;7490;63.708;20.368;2023-08-20T13:34:37;3.00;;;2.80;;
14797;SDS011;7490;63.708;20.368;2023-08-20T13:37:02;2.87;;;2.67;;
14797;SDS011;7490;63.708;20.368;2023-08-20T13:39:28;2.80;;;2.60;;
14797;SDS011;7490;63.708;20.368;2023-08-20T13:41:54;3.13;;;2.60;;
14797;SDS011;7490;63.708;20.368;2023-08-20T13:44:20;2.83;;;2.63;;
14797;SDS011;7490;63.708;20.368;2023-08-20T13:46:46;2.60;;;2.40;;
14797;SDS011;7490;63.708;20.368;2023-08-20T13:49:12;2.73;;;2.53;;
14797;SDS011;7490;63.708;20.368;2023-08-20T13:51:38;4.47;;;2.70;;
14797;SDS011;7490;63.708;20.368;2023-08-20T13:54:04;2.97;;;2.77;;
14797;SDS011;7490;63.708;20.368;2023-08-20T13:56:29;3.13;;;2.83;;
14797;SDS011;7490;63.708;20.368;2023-08-20T13:58:55;2.97;;;2.77;;
14797;SDS011;7490;63.708;20.368;2023-08-20T14:01:21;3.03;;;2.80;;
14797;SDS011;7490;63.708;20.368;2023-08-20T14:03:47;2.80;;;2.37;;
14797;SDS011;7490;63.708;20.368;2023-08-20T14:06:13;2.60;;;2.40;;
14797;SDS011;7490;63.708;20.368;2023-08-20T14:08:38;2.93;;;2.73;;
14797;SDS011;7490;63.708;20.368;2023-08-20T14:11:05;3.07;;;2.73;;
14797;SDS011;7490;63.708;20.368;2023-08-20T14:13:30;3.30;;;3.00;;
14797;SDS011;7490;63.708;20.368;2023-08-20T14:15:57;2.93;;;2.60;;
14797;SDS011;7490;63.708;20.368;2023-08-20T14:18:22;2.93;;;2.73;;
14797;SDS011;7490;63.708;20.368;2023-08-20T14:20:48;2.70;;;2.50;;
14797;SDS011;7490;63.708;20.368;2023-08-20T14:23:14;3.10;;;2.80;;
14797;SDS011;7490;63.708;20.368;2023-08-20T14:25:39;3.20;;;2.87;;
14797;SDS011;7490;63.708;20.368;2023-08-20T14:28:06;3.00;;;2.80;;
14797;SDS011;7490;63.708;20.368;2023-08-20T14:30:35;3.20;;;2.80;;
14797;SDS011;7490;63.708;20.368;2023-08-20T14:33:02;3.77;;;2.73;;
14797;SDS011;7490;63.708;20.368;2023-08-20T14:35:28;4.33;;;2.97;;
14797;SDS011;7490;63.708;20.368;2023-08-20T14:37:53;3.53;;;3.10;;
14797;SDS011;7490;63.708;20.368;2023-08-20T14:40:19;3.20;;;2.93;;
14797;SDS011;7490;63.708;20.368;2023-08-20T14:42:45;3.60;;;3.00;;
14797;SDS011;7490;63.708;20.368;2023-08-20T14:45:10;3.10;;;2.80;;
14797;SDS011;7490;63.708;20.368;2023-08-20T14:47:36;3.83;;;3.40;;
14797;SDS011;7490;63.708;20.368;2023-08-20T14:50:02;3.70;;;3.30;;
14797;SDS011;7490;63.708;20.368;2023-08-20T14:52:28;3.03;;;2.83;;
14797;SDS011;7490;63.708;20.368;2023-08-20T14:54:53;5.23;;;3.10;;
14797;SDS011;7490;63.708;20.368;2023-08-20T14:57:19;4.57;;;3.07;;
14797;SDS011;7490;63.708;20.368;2023-08-20T14:59:45;3.33;;;3.00;;
14797;SDS011;7490;63.708;20.368;2023-08-20T15:02:10;3.63;;;2.93;;
14797;SDS011;7490;63.708;20.368;2023-08-20T15:04:36;3.63;;;3.10;;
14797;SDS011;7490;63.708;20.368;2023-08-20T15:07:02;4.07;;;3.10;;
14797;SDS011;7490;63.708;20.368;2023-08-20T15:09:28;4.37;;;3.17;;